createdAt,value
2023-03-23T15:58:35.760Z,8.90
2023-03-23T16:01:08.632Z,8.10
2023-03-23T16:03:42.501Z,7.60
2023-03-23T16:06:23.928Z,8.40
2023-03-23T16:08:55.236Z,8.20
2023-03-23T16:11:27.579Z,9.90
2023-03-23T16:13:56.215Z,8.20
2023-03-23T16:16:33.070Z,9.90
2023-03-23T16:19:06.789Z,10.60
2023-03-23T16:21:36.573Z,10.20
2023-03-23T16:24:05.049Z,12.20
2023-03-23T16:26:33.430Z,12.10
2023-03-23T16:29:13.887Z,12.70
2023-03-23T16:31:48.514Z,13.10
2023-03-23T16:34:16.876Z,15.30
2023-03-23T16:36:45.104Z,13.40
2023-03-23T16:39:16.026Z,14.00
2023-03-23T16:41:44.100Z,13.10
2023-03-23T16:44:14.810Z,13.70
2023-03-23T16:46:43.144Z,13.40
2023-03-23T16:49:11.882Z,15.80
2023-03-23T16:51:42.962Z,15.50
2023-03-23T16:54:11.607Z,15.00
2023-03-23T16:56:49.994Z,15.20
2023-03-23T16:59:18.401Z,17.80
2023-03-23T17:01:46.852Z,16.50
2023-03-23T17:04:15.874Z,19.50
2023-03-23T17:06:46.212Z,21.50
2023-03-23T17:09:14.799Z,23.60
2023-03-23T17:11:43.831Z,27.40
2023-03-23T17:14:12.268Z,24.80
2023-03-23T17:16:42.886Z,22.00
2023-03-23T17:19:17.188Z,22.50
2023-03-23T17:21:45.696Z,25.20
2023-03-23T17:24:20.831Z,29.70
2023-03-23T17:26:49.578Z,30.20
2023-03-23T17:29:18.049Z,31.60
2023-03-23T17:31:50.520Z,32.00
2023-03-23T17:34:19.440Z,31.20
2023-03-23T17:36:51.844Z,36.50
2023-03-23T17:39:20.018Z,34.70
2023-03-23T17:41:48.546Z,34.60
2023-03-23T17:44:16.888Z,37.30
2023-03-23T17:46:46.492Z,36.60
2023-03-23T17:49:14.967Z,35.10
2023-03-23T17:51:45.651Z,32.50
2023-03-23T17:54:14.308Z,31.00
2023-03-23T17:56:42.896Z,33.60
2023-03-23T17:59:11.513Z,34.30
2023-03-23T18:01:39.479Z,39.30
2023-03-23T18:04:08.214Z,41.20
2023-03-23T18:06:36.254Z,39.10
2023-03-23T18:09:05.765Z,39.80
2023-03-23T18:11:35.111Z,42.10
2023-03-23T18:14:03.366Z,45.00
2023-03-23T18:16:35.093Z,45.40
2023-03-23T18:19:06.663Z,47.60
2023-03-23T18:21:35.086Z,46.80
2023-03-23T18:24:08.386Z,46.60
2023-03-23T18:26:36.941Z,46.70
2023-03-23T18:29:04.939Z,45.50
2023-03-23T18:31:34.362Z,43.70
2023-03-23T18:34:02.591Z,43.40
2023-03-23T18:36:32.267Z,42.80
2023-03-23T18:39:00.786Z,42.50
2023-03-23T18:41:29.167Z,43.00
2023-03-23T18:43:57.877Z,40.90
2023-03-23T18:46:28.058Z,39.20
2023-03-23T18:48:56.343Z,40.50
2023-03-23T18:51:26.182Z,40.70
2023-03-23T18:53:55.196Z,39.60
2023-03-23T18:56:23.368Z,39.00
2023-03-23T18:58:53.611Z,38.60
2023-03-23T19:01:22.485Z,37.90
2023-03-23T19:03:50.723Z,38.20
2023-03-23T19:06:24.807Z,37.10
2023-03-23T19:08:53.621Z,38.10
2023-03-23T19:11:25.433Z,37.10
2023-03-23T19:14:02.598Z,35.70
2023-03-23T19:16:32.909Z,36.30
2023-03-23T19:19:06.312Z,37.40
2023-03-23T19:21:35.898Z,34.30
2023-03-23T19:24:04.047Z,37.30
2023-03-23T19:26:43.431Z,36.20
2023-03-23T19:29:25.295Z,35.90
2023-03-23T19:32:01.572Z,37.50
2023-03-23T19:34:31.084Z,36.70
2023-03-23T19:37:05.381Z,37.10
2023-03-23T19:39:36.177Z,36.60
2023-03-23T19:42:06.323Z,38.90
2023-03-23T19:44:34.935Z,36.80
2023-03-23T19:47:04.176Z,35.10
2023-03-23T19:49:37.259Z,34.50
2023-03-23T19:52:11.994Z,31.80
2023-03-23T19:54:42.207Z,32.80
2023-03-23T19:57:11.917Z,32.10
2023-03-23T19:59:40.476Z,32.20
2023-03-23T20:02:11.677Z,29.70
2023-03-23T20:04:41.540Z,30.20
2023-03-23T20:07:10.235Z,29.70
2023-03-23T20:09:39.042Z,28.70
2023-03-23T20:12:10.795Z,29.60
2023-03-23T20:14:44.474Z,28.80
2023-03-23T20:17:14.758Z,28.30
2023-03-23T20:19:45.645Z,26.70
2023-03-23T20:22:14.845Z,25.90
2023-03-23T20:24:47.240Z,27.10
2023-03-23T20:27:15.766Z,25.50
2023-03-23T20:29:45.096Z,26.00
2023-03-23T20:32:16.536Z,25.20
2023-03-23T20:34:48.943Z,25.00
2023-03-23T20:37:20.542Z,24.90
2023-03-23T20:39:50.379Z,22.40
2023-03-23T20:42:19.382Z,24.70
2023-03-23T20:44:47.785Z,24.00
2023-03-23T20:47:18.093Z,22.60
2023-03-23T20:49:53.195Z,23.30
2023-03-23T20:52:23.539Z,21.70
2023-03-23T20:54:55.068Z,23.60
2023-03-23T20:57:23.475Z,22.60
2023-03-23T20:59:53.609Z,22.90
2023-03-23T21:02:22.370Z,22.00
2023-03-23T21:04:53.063Z,21.20
2023-03-23T21:07:24.066Z,20.80
2023-03-23T21:09:52.511Z,21.20
2023-03-23T21:12:22.945Z,22.80
2023-03-23T21:14:51.677Z,20.90
2023-03-23T21:17:20.033Z,21.20
2023-03-23T21:19:48.991Z,20.60
2023-03-23T21:22:18.856Z,20.80
2023-03-23T21:24:47.006Z,21.20
2023-03-23T21:27:16.825Z,21.80
2023-03-23T21:29:45.076Z,20.80
2023-03-23T21:32:13.781Z,19.00
2023-03-23T21:34:46.822Z,19.80
2023-03-23T21:37:16.213Z,21.70
2023-03-23T21:39:45.692Z,21.60
2023-03-23T21:42:14.272Z,20.60
2023-03-23T21:44:43.064Z,21.70
2023-03-23T21:47:14.869Z,19.30
2023-03-23T21:49:46.168Z,21.00
2023-03-23T21:52:14.329Z,19.60
2023-03-23T21:54:43.737Z,20.70
2023-03-23T21:57:12.567Z,20.90
2023-03-23T21:59:43.360Z,19.50
2023-03-23T22:02:13.380Z,21.10
2023-03-23T22:04:41.862Z,20.10
2023-03-23T22:07:15.360Z,19.80
2023-03-23T22:09:45.483Z,19.80
2023-03-23T22:12:14.291Z,18.80
2023-03-23T22:14:42.647Z,19.80
2023-03-23T22:17:12.355Z,18.10
2023-03-23T22:19:40.746Z,18.70
2023-03-23T22:22:12.595Z,19.30
2023-03-23T22:24:41.725Z,18.20
2023-03-23T22:27:10.178Z,18.60
2023-03-23T22:29:38.559Z,19.10
2023-03-23T22:32:06.849Z,18.10
2023-03-23T22:34:35.121Z,19.00
2023-03-23T22:37:05.787Z,18.90
2023-03-23T22:39:34.662Z,18.30
2023-03-23T22:42:06.610Z,19.20
2023-03-23T22:44:36.639Z,18.20
2023-03-23T22:47:05.110Z,18.50
2023-03-23T22:49:36.249Z,18.10
2023-03-23T22:52:05.058Z,16.60
2023-03-23T22:54:41.524Z,17.20
2023-03-23T22:57:11.187Z,17.60
2023-03-23T22:59:39.711Z,19.20
2023-03-23T23:02:07.880Z,17.00
2023-03-23T23:04:37.449Z,17.80
2023-03-23T23:07:12.786Z,17.30
2023-03-23T23:09:55.438Z,17.60
2023-03-23T23:12:24.531Z,17.50
2023-03-23T23:14:58.603Z,18.80
2023-03-23T23:17:27.843Z,18.10
2023-03-23T23:19:57.656Z,17.30
2023-03-23T23:22:25.794Z,17.80
2023-03-23T23:24:54.637Z,17.90
2023-03-23T23:27:22.848Z,18.00
2023-03-23T23:29:51.174Z,16.70
2023-03-23T23:32:19.803Z,16.30
2023-03-23T23:34:48.751Z,17.00
2023-03-23T23:37:17.441Z,16.30
2023-03-23T23:39:45.719Z,16.10
2023-03-23T23:42:14.113Z,16.60
2023-03-23T23:44:45.309Z,17.00
2023-03-23T23:47:18.941Z,15.80
2023-03-23T23:49:47.335Z,17.30
2023-03-23T23:52:15.818Z,16.60
2023-03-23T23:54:51.768Z,16.40
2023-03-23T23:57:19.937Z,15.50
2023-03-23T23:59:48.110Z,16.00
